Latest Observation

42 Stations

15 Minute Data | America/Los_Angeles
as of 9/2/26 10:34 PM PDT
Station Date Time Temp (°F) RH (%) Dew Pt (°F) Wind Spd (mph) Wind Dir (°) Wind Gust (mph) Latest Rain (In) Daily Rain (In) Daily Min Temp (°F) Daily Max Temp (°F) Daily Max Wind (mph)
Elk Mt. Farm 8/13/26 1500 85.6   7.4 - - - - - - - 51.4   1.1 85.6   7.4 -
Upper Lake 9/2/26 2230 61.9   8.2 62   29 48.7   2.3 1.9 W | 276 5.0   0.7 0.00 0.01 49.9   3.4 73.2   3.7 12.6   6.3
Scotts Valley 9/2/26 2230 58.7   7.2 70   18 49.0   0.8 0.6 SW | 233 3.7   2.4 0.00 0.02 52.1   5.0 73.2   1.1 14.5   0.1
Scotts Valley-South (Bella Vista) 9/2/26 2230 58.1   5.3 66   20 47.0   1.8 2.9 SSW | 209 6.1   2.9 0.00 0.05 52.8   3.5 71.5   0.1 13.8   0.5
Kelseyville 9/2/26 2230 58.7   4.0 70   14 49.1   1.1 1.9 SW | 214 7.2   1.5 0.00 0.02 54.0   6.2 71.8   0.0 17.3   1.3
Kelseyville Remote 9/2/26 2230 59.5   3.6 62   13 46.3   1.5 - - - 0.00 0.01 54.5   6.3 72.9   0.4 -
Kelseyville (Clark Drive) 9/2/26 2230 58.8   5.7 - - - - - 0.00 0.00 53.4   8.2 75.4   2.0 -
Kelsey Bench (Oaklea) 9/2/26 2230 57.4   4.1 70   13 47.7   0.5 4.3 SW | 220 8.5   4.6 0.00 0.02 52.7   3.6 72.0   0.6 16.1   0.5
Smith Lane (Kelseyville-South) 9/2/26 2230 58.6   5.4 70   12 49.0   1.1 5.2 SW | 229 9.9   7.8 0.00 0.02 53.7   9.5 73.9   1.7 15.5   0.0
Bell Hill-West 9/2/26 2230 58.1   4.7 79   14 51.8   0.2 0.7 S | 180 3.4   1.3 0.00 0.03 54.3   6.3 72.2   0.8 16.2   2.4
High Valley Ridgeline (Brassfield) 9/2/26 2230 54.6   0.6 75   2 47.0   0.3 12.6 WSW | 243 19.4   6.5 0.00 0.02 51.4   0.5 70.3   1.2 21.6   2.3
Wight Way (Adobe Creek) 9/2/26 2200 53.8   0.1 78   2 47.1   0.9 0.0 NW | 310 1.0   0.8 0.00 0.05 53.2   7.0 80.7   2.7 13.6   2.1
Ridgeline Top (Brassfield) 9/2/26 2230 54.4   0.7 - - - - - - - 51.2   0.4 72.7   1.0 -
Ridgeline Low (Brassfield) 9/2/26 2230 56.4   0.7 - - - - - - - 52.2   1.2 70.3   0.7 -
Long Valley (Shannon) 6/29/26 1400 84.9   4.6 25   1 44.9   3.2 2.9 ENE | 75 10.2   0.4 0.00 0.00 46.4   0.4 86.9   6.5 13.7   1.8
High Valley Winery 9/2/26 2230 57.2   1.0 68   4 46.7   0.6 8.2 WSW | 241 14.7   7.3 0.00 0.00 53.0   0.3 72.0   0.8 20.0   0.9
Round Mtn Rd. 9/2/26 1915 62.5   2.0 - - - - - - - 51.7   3.0 71.3   0.2 -
Circle O 9/2/26 2230 55.1   1.8 - - - - - - - 50.3   0.3 73.1   1.4 -
Robertsbridge Vineyards 9/2/26 2230 56.8   6.3 70   12 47.2   2.0 - - - - - 50.5   5.7 73.5   0.1 -
Urgency Vineyard 9/2/26 2230 56.4   2.1 65   6 44.8   0.5 5.1 SW | 235 11.5   4.7 0.00 0.01 52.9   1.8 72.6   0.9 13.2   0.8
Red Hills (Beckstoffer) 9/2/26 2230 56.6   1.3 68   5 46.0   0.7 - - - 0.00 0.01 53.1   1.4 71.8   1.0 -
Winters (Shannon) 9/2/26 2230 54.2   2.7 68   6 43.9   0.3 3.2 NNW | 347 6.2   1.8 0.00 0.01 50.5   1.1 71.2   1.4 14.0   1.7
Secret Pond (Shannon) 9/2/26 2230 54.5   3.3 68   4 44.2   1.6 4.6 WNW | 284 9.8   7.0 0.00 0.00 50.4   2.0 69.5   2.3 14.2   5.5
Rolling Knolls (Shannon) 9/2/26 2230 51.8   0.9 74   1 43.8   0.5 1.6 WSW | 250 4.7   2.3 0.00 0.00 50.0   2.8 73.8   1.9 13.2   1.4
Lower Lake 9/2/26 2230 56.8   3.6 67   9 46.1   0.3 2.2 W | 278 10.3   4.6 0.00 0.00 52.3   0.9 73.6   2.2 15.0   1.4
Adamson Ranch 9/2/26 2230 55.1   0.2 77   7 47.9   2.7 0.6 SSW | 202 4.6   2.6 0.00 0.01 49.7   5.6 75.0   1.6 17.8   0.4
Middletown (Diamond D) 9/2/26 2230 58.4   1.0 80   7 52.2   1.7 8.8 N | 355 13.4   1.9 0.00 0.07 55.3   13.7 71.7   0.9 16.7   4.2
Middletown-West (Domaine Helena) 9/2/26 2230 56.2   1.4 85   8 51.8   1.4 6.6 SSW | 197 10.8   6.0 0.00 0.11 53.7   12.6 71.8   1.4 15.7   5.5
Middletown-South 9/2/26 2230 57.1   1.3 81   10 51.4   2.2 6.2 SW | 218 12.5   0.4 0.00 0.22 54.4   9.3 71.1   1.0 16.9   3.9
Jim Davis (Langtry) 9/2/26 2230 59.6   1.4 70   1 49.9   0.9 9.8 WSW | 248 18.0   11.5 0.00 0.00 53.0   5.4 72.2   1.3 21.9   0.9
Napa Valley Basin 9/2/26 2230 55.0   1.8 77   6 48.0   0.3 1.0 W | 265 1.8   1.5 0.00 0.00 49.7   7.3 75.6   0.7 18.6   0.7
Lower Bohn 9/2/26 2230 58.8   3.5 69   2 48.6   2.7 1.4 SSW | 211 3.4   0.8 0.00 0.00 48.8   10.3 74.5   0.8 20.8   0.2
Upper Bohn-North 9/2/26 2230 55.0   1.6 81   7 49.2   0.8 0.3 SSE | 148 1.9   2.2 0.00 0.00 51.4   5.1 76.1   0.3 12.9   1.5
Snell Peak Blk#9 9/2/26 2230 57.3   0.1 74   2 49.2   0.7 0.4 NE | 44 1.8   3.0 0.00 0.00 55.2   5.7 73.7   0.0 14.8   1.8
Coyote Lake West 9/2/26 2230 56.0   1.8 77   4 49.1   0.5 0.6 NW | 312 2.0   1.5 0.00 0.00 52.6   6.1 74.5   0.5 16.4   1.1
Coyote Lake Northeast 9/2/26 2230 55.9   2.6 80   8 50.0   0.2 - - - - - 53.9   5.4 74.3   1.2 -
Coyote Lake East 9/2/26 2230 54.7   1.8 82   5 49.3   0.2 - - - - - 50.7   6.1 74.5   0.7 -
Morgan Valley 9/2/26 2230 53.5   0.9 91   13 51.0   3.2 5.0 SW | 224 9.2   4.8 0.00 0.00 51.6   0.9 66.9   1.5 18.9   3.0
Mine Pit North 9/2/26 2230 56.8   0.2 75   1 48.9   0.7 9.4 SSW | 195 17.5   7.1 - - 52.2   3.7 71.3   1.7 26.8   1.1
Mine Pit South 9/2/26 2230 55.6   0.0 74   4 47.6   1.5 6.1 WSW | 244 14.2   4.1 0.00 0.00 51.3   1.7 71.7   0.6 22.7   3.3
Cow Mountain 9/2/26 2230 48.8   1.2 - - 16.1 WSW | 254 21.3   11.6 0.00 0.06 46.8   0.6 60.5   2.3 24.8   7.4
Ukiah-SE (Ruddick) 9/2/26 2230 61.3   6.8 67   26 50.1   2.2 4.0 S | 169 8.0   4.5 0.00 0.07 55.1   0.7 75.2   3.5 15.2   1.0
Max     61.9 91 52.2 16.1 - 21.3 0.00 0.22 55.3 80.7 26.8
Avg     56.5 73 48.2 4.4 - 8.7 0.00 - - - -
Min     48.8 62 43.8 0.0 - 1.0 0.00 0.00 46.8 60.5 12.6